createdAt,value
2022-08-26T00:00:25.705Z,2.49
2022-08-26T00:01:29.141Z,2.80
2022-08-26T00:02:33.078Z,2.46
2022-08-26T00:03:35.726Z,2.71
2022-08-26T00:04:38.373Z,4.07
2022-08-26T00:05:41.043Z,3.06
2022-08-26T00:06:46.187Z,2.84
2022-08-26T00:07:48.998Z,3.16
2022-08-26T00:08:51.611Z,3.09
2022-08-26T00:09:54.487Z,3.41
2022-08-26T00:10:58.180Z,2.42
2022-08-26T00:12:02.588Z,2.92
2022-08-26T00:13:05.156Z,2.89
2022-08-26T00:14:07.741Z,2.42
2022-08-26T00:15:10.695Z,3.23
2022-08-26T00:16:13.911Z,2.84
2022-08-26T00:17:16.652Z,3.11
2022-08-26T00:18:22.298Z,4.01
2022-08-26T00:19:23.632Z,2.88
2022-08-26T00:20:27.013Z,2.31
2022-08-26T00:21:30.604Z,4.01
2022-08-26T00:22:34.196Z,2.83
2022-08-26T00:23:36.865Z,3.03
2022-08-26T00:24:39.843Z,2.86
2022-08-26T00:25:44.462Z,3.16
2022-08-26T00:26:47.332Z,2.99
2022-08-26T00:27:49.917Z,3.05
2022-08-26T00:28:54.412Z,3.43
2022-08-26T00:29:56.980Z,3.11
2022-08-26T00:31:01.079Z,2.82
2022-08-26T00:32:04.171Z,3.27
2022-08-26T00:33:07.291Z,2.61
2022-08-26T00:34:11.161Z,2.55
2022-08-26T00:35:14.216Z,4.64
2022-08-26T00:36:20.201Z,3.11
2022-08-26T00:37:22.931Z,3.18
2022-08-26T00:38:27.444Z,2.87
2022-08-26T00:39:30.008Z,2.59
2022-08-26T00:40:33.110Z,2.31
2022-08-26T00:41:35.757Z,3.03
2022-08-26T00:42:39.347Z,2.64
2022-08-26T00:43:46.435Z,2.78
2022-08-26T00:44:48.295Z,2.64
2022-08-26T00:45:52.852Z,2.83
2022-08-26T00:46:55.863Z,2.76
2022-08-26T00:47:58.631Z,2.65
2022-08-26T00:49:01.200Z,3.01
2022-08-26T00:50:04.788Z,2.81
2022-08-26T00:51:07.774Z,2.80
2022-08-26T00:52:12.116Z,2.84
2022-08-26T00:53:15.171Z,3.21
2022-08-26T00:54:18.027Z,3.09
2022-08-26T00:55:21.476Z,3.01
2022-08-26T00:56:25.424Z,2.74
2022-08-26T00:57:27.985Z,2.79
2022-08-26T00:58:30.648Z,3.00
2022-08-26T00:59:33.287Z,2.74
2022-08-26T01:00:36.401Z,3.20
2022-08-26T01:01:39.375Z,2.89
2022-08-26T01:02:46.807Z,2.92
2022-08-26T01:03:47.175Z,2.60
2022-08-26T01:04:49.839Z,3.29
2022-08-26T01:05:54.208Z,2.85
2022-08-26T01:06:57.289Z,2.81
2022-08-26T01:07:59.895Z,2.57
2022-08-26T01:09:02.463Z,2.86
2022-08-26T01:10:05.644Z,2.62
2022-08-26T01:11:08.316Z,2.94
2022-08-26T01:12:10.850Z,2.97
2022-08-26T01:13:13.610Z,2.86
2022-08-26T01:14:16.220Z,2.20
2022-08-26T01:15:20.753Z,2.47
2022-08-26T01:16:24.137Z,3.01
2022-08-26T01:17:27.312Z,2.49
2022-08-26T01:18:29.851Z,2.95
2022-08-26T01:19:33.155Z,3.68
2022-08-26T01:20:36.026Z,3.11
2022-08-26T01:21:40.707Z,3.17
2022-08-26T01:22:44.348Z,3.33
2022-08-26T01:23:48.043Z,3.26
2022-08-26T01:24:50.697Z,3.25
2022-08-26T01:25:53.633Z,3.80
2022-08-26T01:26:56.644Z,2.93
2022-08-26T01:27:59.216Z,2.85
2022-08-26T01:29:01.779Z,2.79
2022-08-26T01:30:04.657Z,2.96
2022-08-26T01:31:07.324Z,5.55
2022-08-26T01:32:10.300Z,3.53
2022-08-26T01:33:12.971Z,2.81
2022-08-26T01:34:16.252Z,2.89
2022-08-26T01:35:18.780Z,3.51
2022-08-26T01:36:21.595Z,4.00
2022-08-26T01:37:24.221Z,3.53
2022-08-26T01:38:26.828Z,3.24
2022-08-26T01:39:31.339Z,3.25
2022-08-26T01:40:35.339Z,3.44
2022-08-26T01:41:37.904Z,2.89
2022-08-26T01:42:40.664Z,2.94
2022-08-26T01:43:43.349Z,2.75
2022-08-26T01:44:46.016Z,2.60
2022-08-26T01:45:48.726Z,2.71
2022-08-26T01:46:51.864Z,3.12
2022-08-26T01:47:56.862Z,2.63
2022-08-26T01:49:00.037Z,3.74
2022-08-26T01:50:03.119Z,3.00
2022-08-26T01:51:06.027Z,3.58
2022-08-26T01:52:09.574Z,2.99
2022-08-26T01:53:13.536Z,3.24
2022-08-26T01:54:16.139Z,3.01
2022-08-26T01:55:32.396Z,2.81
2022-08-26T01:56:25.010Z,3.36
2022-08-26T01:57:29.515Z,3.00
2022-08-26T01:58:32.082Z,3.23
2022-08-26T01:59:34.655Z,3.41
2022-08-26T02:00:37.710Z,3.95
2022-08-26T02:01:40.710Z,3.68
2022-08-26T02:02:43.710Z,3.96
2022-08-26T02:03:46.205Z,3.59
2022-08-26T02:04:50.272Z,3.48
2022-08-26T02:05:52.918Z,4.26
2022-08-26T02:06:55.900Z,4.41
2022-08-26T02:07:58.828Z,3.99
2022-08-26T02:09:02.567Z,4.22
2022-08-26T02:10:05.436Z,4.89
2022-08-26T02:11:08.049Z,4.77
2022-08-26T02:12:10.528Z,4.79
2022-08-26T02:13:13.138Z,4.55
2022-08-26T02:14:16.727Z,5.09
2022-08-26T02:15:19.293Z,4.59
2022-08-26T02:16:24.185Z,4.72
2022-08-26T02:17:27.459Z,5.37
2022-08-26T02:18:30.783Z,5.51
2022-08-26T02:19:33.393Z,5.42
2022-08-26T02:20:36.432Z,6.28
2022-08-26T02:21:39.716Z,5.80
2022-08-26T02:22:45.177Z,5.82
2022-08-26T02:23:48.126Z,6.19
2022-08-26T02:24:50.989Z,6.97
2022-08-26T02:25:53.526Z,6.19
2022-08-26T02:26:56.443Z,6.97
2022-08-26T02:27:59.006Z,6.36
2022-08-26T02:29:03.530Z,7.31
2022-08-26T02:30:06.294Z,6.73
2022-08-26T02:31:09.017Z,6.19
2022-08-26T02:32:12.862Z,7.14
2022-08-26T02:33:17.271Z,6.81
2022-08-26T02:34:19.820Z,6.90
2022-08-26T02:35:22.402Z,6.91
2022-08-26T02:36:28.589Z,6.86
2022-08-26T02:37:31.330Z,7.32
2022-08-26T02:38:33.891Z,6.87
2022-08-26T02:39:36.413Z,6.69
2022-08-26T02:40:40.252Z,7.31
2022-08-26T02:41:45.314Z,7.35
2022-08-26T02:42:48.151Z,6.72
2022-08-26T02:43:50.719Z,7.75
2022-08-26T02:44:53.386Z,7.04
2022-08-26T02:45:55.954Z,6.91
2022-08-26T02:46:58.906Z,7.33
2022-08-26T02:48:01.839Z,6.48
2022-08-26T02:49:04.431Z,7.62
2022-08-26T02:50:07.450Z,6.33
2022-08-26T02:51:10.751Z,5.90
2022-08-26T02:52:13.299Z,5.89
2022-08-26T02:53:16.586Z,5.31
2022-08-26T02:54:20.951Z,4.49
2022-08-26T02:55:24.793Z,5.35
2022-08-26T02:56:28.892Z,5.14
2022-08-26T02:57:31.459Z,5.11
2022-08-26T02:58:34.030Z,5.49
2022-08-26T02:59:37.003Z,4.63
2022-08-26T03:00:53.022Z,5.53
2022-08-26T03:01:44.366Z,4.58
2022-08-26T03:02:47.164Z,4.01
2022-08-26T03:03:51.572Z,4.34
2022-08-26T03:04:57.867Z,4.77
2022-08-26T03:05:58.711Z,5.40
2022-08-26T03:07:01.735Z,4.16
2022-08-26T03:08:04.356Z,4.77
2022-08-26T03:09:06.965Z,4.65
2022-08-26T03:10:11.785Z,4.90
2022-08-26T03:11:14.354Z,5.33
2022-08-26T03:12:17.946Z,4.46
2022-08-26T03:13:21.630Z,4.91
2022-08-26T03:14:24.203Z,5.29
2022-08-26T03:15:26.870Z,5.00
2022-08-26T03:16:32.468Z,5.99
2022-08-26T03:17:34.258Z,5.45
2022-08-26T03:18:38.568Z,5.08
2022-08-26T03:19:41.984Z,6.11
2022-08-26T03:20:45.442Z,5.14
2022-08-26T03:21:48.154Z,5.77
2022-08-26T03:22:51.803Z,5.68
2022-08-26T03:23:54.374Z,6.05
2022-08-26T03:24:58.779Z,5.80
2022-08-26T03:26:02.774Z,5.38
2022-08-26T03:27:07.385Z,5.95
2022-08-26T03:28:09.887Z,5.45
2022-08-26T03:29:12.528Z,5.83
2022-08-26T03:30:16.836Z,5.94
2022-08-26T03:31:19.526Z,6.11
2022-08-26T03:32:24.032Z,5.71
2022-08-26T03:33:28.428Z,6.91
2022-08-26T03:34:32.134Z,5.69
2022-08-26T03:35:34.687Z,6.95
2022-08-26T03:36:37.771Z,5.95
2022-08-26T03:37:40.862Z,6.39
2022-08-26T03:38:43.423Z,6.48
2022-08-26T03:39:46.083Z,5.93
2022-08-26T03:40:49.067Z,5.97
2022-08-26T03:41:53.880Z,5.54
2022-08-26T03:42:56.814Z,5.47
2022-08-26T03:44:01.695Z,5.73
2022-08-26T03:45:03.936Z,6.02
2022-08-26T03:46:07.082Z,6.27
2022-08-26T03:47:09.990Z,5.79
2022-08-26T03:48:12.659Z,6.67
2022-08-26T03:49:16.951Z,6.04
2022-08-26T03:50:22.580Z,6.08
2022-08-26T03:51:25.891Z,7.10
2022-08-26T03:52:29.068Z,6.36
2022-08-26T03:53:31.558Z,6.21
2022-08-26T03:54:34.100Z,6.20
2022-08-26T03:55:36.687Z,6.19
2022-08-26T03:56:40.453Z,6.19
2022-08-26T03:57:43.032Z,6.48
2022-08-26T03:58:47.030Z,6.18
2022-08-26T03:59:49.599Z,5.55
2022-08-26T04:00:55.647Z,6.00
2022-08-26T04:01:59.096Z,5.65
2022-08-26T04:03:03.893Z,5.93
2022-08-26T04:04:06.829Z,6.06
2022-08-26T04:05:09.808Z,4.87
2022-08-26T04:06:13.091Z,6.83
2022-08-26T04:07:16.087Z,6.19
2022-08-26T04:08:18.659Z,5.79
2022-08-26T04:09:21.271Z,6.10
2022-08-26T04:10:28.607Z,5.88
2022-08-26T04:11:30.125Z,6.24
2022-08-26T04:12:34.639Z,6.50
2022-08-26T04:13:37.203Z,5.36
2022-08-26T04:14:41.201Z,5.44
2022-08-26T04:15:44.271Z,5.39
2022-08-26T04:16:47.976Z,6.78
2022-08-26T04:17:50.540Z,5.91
2022-08-26T04:18:53.108Z,5.67
2022-08-26T04:19:55.733Z,5.54
2022-08-26T04:21:00.144Z,6.14
2022-08-26T04:22:02.636Z,7.57
2022-08-26T04:23:05.229Z,6.05
2022-08-26T04:24:12.044Z,6.16
2022-08-26T04:25:13.021Z,6.62
2022-08-26T04:26:17.050Z,5.74
2022-08-26T04:27:19.584Z,6.21
2022-08-26T04:28:22.251Z,5.26
2022-08-26T04:29:25.637Z,6.09
2022-08-26T04:30:28.612Z,5.64
2022-08-26T04:31:31.213Z,6.15
2022-08-26T04:32:34.879Z,5.88
2022-08-26T04:33:41.754Z,6.37
2022-08-26T04:34:41.952Z,5.32
2022-08-26T04:35:44.621Z,5.26
2022-08-26T04:36:49.167Z,5.46
2022-08-26T04:37:52.524Z,5.69
2022-08-26T04:38:55.088Z,5.20
2022-08-26T04:39:57.777Z,5.47
2022-08-26T04:41:01.140Z,6.11
2022-08-26T04:42:03.712Z,6.27
2022-08-26T04:43:06.536Z,5.75
2022-08-26T04:44:09.764Z,5.46
2022-08-26T04:45:12.392Z,6.10
2022-08-26T04:46:16.107Z,5.77
2022-08-26T04:47:19.266Z,4.97
2022-08-26T04:48:21.872Z,5.70
2022-08-26T04:49:24.359Z,5.67
2022-08-26T04:50:29.838Z,5.58
2022-08-26T04:51:32.450Z,5.56
2022-08-26T04:52:35.115Z,6.19
2022-08-26T04:53:37.729Z,5.09
2022-08-26T04:54:41.963Z,6.37
2022-08-26T04:55:45.122Z,5.56
2022-08-26T04:56:48.245Z,4.92
2022-08-26T04:57:50.873Z,4.85
2022-08-26T04:58:53.484Z,5.09
2022-08-26T04:59:56.016Z,4.75
2022-08-26T05:00:59.237Z,4.41
2022-08-26T05:02:02.251Z,5.07
2022-08-26T05:03:06.700Z,4.56
2022-08-26T05:04:10.044Z,4.90
2022-08-26T05:05:12.981Z,4.20
2022-08-26T05:06:15.960Z,4.30
2022-08-26T05:07:20.476Z,4.91
2022-08-26T05:08:23.035Z,5.26
2022-08-26T05:09:25.707Z,4.23
2022-08-26T05:10:29.397Z,4.61
2022-08-26T05:11:32.679Z,4.22
2022-08-26T05:12:35.348Z,3.99
2022-08-26T05:13:37.929Z,3.99
2022-08-26T05:14:40.587Z,4.55
2022-08-26T05:15:43.185Z,4.33
2022-08-26T05:16:47.995Z,4.76
2022-08-26T05:17:50.950Z,4.98
2022-08-26T05:18:53.476Z,4.51
2022-08-26T05:19:56.184Z,4.13
2022-08-26T05:20:59.470Z,4.28
2022-08-26T05:22:02.449Z,4.06
2022-08-26T05:23:05.688Z,3.95
2022-08-26T05:24:10.139Z,3.55
2022-08-26T05:25:13.220Z,3.71
2022-08-26T05:26:17.124Z,3.68
2022-08-26T05:27:21.527Z,3.85
2022-08-26T05:28:24.097Z,3.61
2022-08-26T05:29:26.664Z,3.31
2022-08-26T05:30:30.256Z,3.52
2022-08-26T05:31:32.978Z,3.61
2022-08-26T05:32:35.592Z,5.17
2022-08-26T05:33:38.260Z,3.71
2022-08-26T05:34:42.985Z,3.47
2022-08-26T05:35:45.747Z,3.24
2022-08-26T05:36:48.756Z,4.33
2022-08-26T05:37:51.352Z,3.69
2022-08-26T05:38:55.291Z,3.35
2022-08-26T05:39:57.891Z,3.39
2022-08-26T05:41:01.251Z,3.79
2022-08-26T05:42:03.911Z,3.93
2022-08-26T05:43:06.689Z,3.34
2022-08-26T05:44:11.110Z,3.88
2022-08-26T05:45:13.722Z,4.31
2022-08-26T05:46:17.805Z,3.44
2022-08-26T05:47:20.557Z,3.71
2022-08-26T05:48:24.532Z,3.37
2022-08-26T05:49:27.529Z,3.90
2022-08-26T05:50:30.835Z,3.51
2022-08-26T05:51:33.364Z,2.79
2022-08-26T05:52:35.955Z,2.67
2022-08-26T05:53:38.624Z,3.13
2022-08-26T05:54:41.271Z,3.52
2022-08-26T05:55:43.799Z,3.43
2022-08-26T05:56:47.324Z,3.16
2022-08-26T05:57:51.324Z,3.74
2022-08-26T05:58:53.996Z,4.63
2022-08-26T05:59:56.665Z,3.85
2022-08-26T06:00:59.949Z,3.65
2022-08-26T06:02:02.662Z,3.49
2022-08-26T06:03:05.703Z,3.64
2022-08-26T06:04:08.875Z,3.56
2022-08-26T06:05:11.544Z,3.86
2022-08-26T06:06:15.140Z,2.93
2022-08-26T06:07:19.653Z,2.69
2022-08-26T06:08:24.164Z,3.65
2022-08-26T06:09:27.136Z,3.17
2022-08-26T06:10:32.370Z,3.01
2022-08-26T06:11:34.632Z,2.41
2022-08-26T06:12:37.309Z,2.83
2022-08-26T06:13:39.926Z,2.77
2022-08-26T06:14:42.735Z,2.96
2022-08-26T06:15:46.094Z,2.27
2022-08-26T06:16:48.912Z,2.62
2022-08-26T06:17:51.485Z,2.48
2022-08-26T06:18:54.844Z,2.04
2022-08-26T06:19:57.425Z,2.25
2022-08-26T06:21:00.550Z,2.04
2022-08-26T06:22:03.478Z,2.26
2022-08-26T06:23:06.030Z,2.01
2022-08-26T06:24:08.731Z,2.52
2022-08-26T06:25:12.102Z,1.95
2022-08-26T06:26:15.993Z,2.17
2022-08-26T06:27:18.659Z,1.96
2022-08-26T06:28:22.560Z,2.53
2022-08-26T06:29:26.167Z,1.83
2022-08-26T06:30:29.127Z,1.98
2022-08-26T06:31:31.710Z,1.98
2022-08-26T06:32:35.597Z,1.94
2022-08-26T06:33:38.036Z,1.83
2022-08-26T06:34:41.678Z,1.88
2022-08-26T06:35:44.247Z,1.65
2022-08-26T06:36:47.308Z,1.80
2022-08-26T06:37:49.958Z,1.56
2022-08-26T06:38:52.524Z,1.89
2022-08-26T06:39:55.337Z,1.72
2022-08-26T06:40:59.761Z,2.22
2022-08-26T06:42:03.069Z,1.76
2022-08-26T06:43:06.342Z,1.88
2022-08-26T06:44:09.663Z,1.69
2022-08-26T06:45:12.638Z,1.44
2022-08-26T06:46:16.266Z,2.36
2022-08-26T06:47:19.208Z,1.69
2022-08-26T06:48:22.287Z,1.53
2022-08-26T06:49:26.807Z,1.69
2022-08-26T06:50:30.595Z,1.76
2022-08-26T06:51:33.160Z,2.25
2022-08-26T06:52:37.468Z,1.74
2022-08-26T06:53:41.035Z,2.00
2022-08-26T06:54:44.359Z,2.29
2022-08-26T06:55:47.013Z,2.22
2022-08-26T06:56:51.737Z,2.33
2022-08-26T06:57:54.401Z,2.85
2022-08-26T06:58:56.967Z,1.93
2022-08-26T06:59:59.739Z,2.05
2022-08-26T07:01:11.605Z,1.83
2022-08-26T07:02:06.835Z,1.98
2022-08-26T07:03:12.851Z,2.03
2022-08-26T07:04:15.922Z,2.14
2022-08-26T07:05:20.155Z,2.45
2022-08-26T07:06:23.499Z,2.44
2022-08-26T07:07:26.096Z,1.89
2022-08-26T07:08:28.730Z,2.78
2022-08-26T07:09:31.286Z,1.92
2022-08-26T07:10:34.094Z,2.68
2022-08-26T07:11:36.678Z,2.21
2022-08-26T07:12:39.251Z,2.56
2022-08-26T07:13:43.765Z,2.06
2022-08-26T07:14:47.472Z,2.22
2022-08-26T07:15:50.993Z,2.19
2022-08-26T07:16:55.766Z,2.34
2022-08-26T07:17:58.730Z,2.36
2022-08-26T07:19:01.301Z,2.38
2022-08-26T07:20:06.021Z,2.11
2022-08-26T07:21:09.222Z,1.93
2022-08-26T07:22:11.762Z,1.88
2022-08-26T07:23:14.345Z,2.35
2022-08-26T07:24:18.852Z,1.91
2022-08-26T07:25:23.250Z,1.92
2022-08-26T07:26:26.536Z,2.04
2022-08-26T07:27:30.947Z,2.33
2022-08-26T07:28:33.515Z,1.69
2022-08-26T07:29:36.196Z,2.19
2022-08-26T07:30:39.096Z,1.93
2022-08-26T07:31:43.783Z,2.56
2022-08-26T07:32:46.442Z,2.23
2022-08-26T07:33:49.008Z,2.49
2022-08-26T07:34:53.522Z,2.75
2022-08-26T07:35:56.048Z,2.47
2022-08-26T07:36:59.064Z,1.81
2022-08-26T07:38:01.630Z,2.39
2022-08-26T07:39:05.017Z,2.63
2022-08-26T07:40:08.764Z,1.78
2022-08-26T07:41:12.199Z,1.98
2022-08-26T07:42:15.195Z,2.20
2022-08-26T07:43:17.740Z,1.96
2022-08-26T07:44:20.309Z,2.05
2022-08-26T07:45:22.935Z,2.72
2022-08-26T07:46:30.301Z,1.75
2022-08-26T07:47:31.843Z,2.06
2022-08-26T07:48:34.467Z,1.75
2022-08-26T07:49:38.528Z,2.27
2022-08-26T07:50:50.623Z,1.79
2022-08-26T07:51:46.016Z,2.26
2022-08-26T07:52:48.626Z,2.20
2022-08-26T07:53:52.296Z,1.77
2022-08-26T07:54:55.511Z,1.96
2022-08-26T07:55:58.177Z,1.58
2022-08-26T07:57:01.146Z,2.49
2022-08-26T07:58:05.525Z,2.22
2022-08-26T07:59:08.653Z,2.49
2022-08-26T08:00:13.353Z,2.32
2022-08-26T08:01:17.718Z,2.03
2022-08-26T08:02:20.738Z,2.32
2022-08-26T08:03:23.613Z,2.49
2022-08-26T08:04:26.822Z,2.58
2022-08-26T08:05:33.253Z,2.10
2022-08-26T08:06:34.388Z,2.27
2022-08-26T08:07:45.136Z,2.13
2022-08-26T08:08:41.400Z,1.80
2022-08-26T08:09:44.159Z,1.66
2022-08-26T08:10:48.890Z,1.74
2022-08-26T08:11:51.730Z,2.06
2022-08-26T08:12:54.703Z,2.49
2022-08-26T08:13:57.271Z,1.92
2022-08-26T08:14:59.835Z,1.93
2022-08-26T08:16:03.084Z,2.35
2022-08-26T08:17:05.781Z,2.01
2022-08-26T08:18:15.505Z,2.21
2022-08-26T08:19:13.994Z,1.96
2022-08-26T08:20:17.690Z,1.85
2022-08-26T08:21:22.035Z,2.07
2022-08-26T08:22:24.871Z,1.98
2022-08-26T08:23:29.284Z,2.46
2022-08-26T08:24:32.365Z,2.47
2022-08-26T08:25:34.926Z,2.08
2022-08-26T08:26:38.010Z,1.78
2022-08-26T08:27:41.697Z,2.42
2022-08-26T08:28:44.265Z,2.38
2022-08-26T08:29:46.967Z,2.81
2022-08-26T08:30:49.937Z,2.64
2022-08-26T08:31:56.079Z,2.51
2022-08-26T08:32:57.357Z,2.55
2022-08-26T08:34:00.375Z,2.82
2022-08-26T08:35:02.994Z,2.37
2022-08-26T08:36:09.291Z,2.63
2022-08-26T08:37:12.071Z,2.62
2022-08-26T08:38:14.635Z,2.43
2022-08-26T08:39:17.206Z,3.24
2022-08-26T08:40:21.848Z,2.24
2022-08-26T08:41:24.999Z,1.88
2022-08-26T08:42:28.695Z,2.27
2022-08-26T08:43:31.233Z,2.13
2022-08-26T08:44:35.804Z,2.23
2022-08-26T08:45:38.651Z,2.41
2022-08-26T08:46:41.974Z,2.94
2022-08-26T08:47:45.832Z,2.83
2022-08-26T08:48:48.515Z,2.55
2022-08-26T08:49:51.381Z,3.48
2022-08-26T08:50:54.102Z,3.18
2022-08-26T08:51:56.816Z,3.30
2022-08-26T08:52:59.356Z,3.13
2022-08-26T08:54:01.946Z,2.79
2022-08-26T08:55:04.824Z,3.67
2022-08-26T08:56:09.639Z,2.98
2022-08-26T08:57:12.209Z,3.88
2022-08-26T08:58:14.788Z,2.67
2022-08-26T08:59:19.551Z,2.76
2022-08-26T09:00:30.609Z,2.99
2022-08-26T09:01:27.638Z,2.96
2022-08-26T09:02:30.924Z,2.42
2022-08-26T09:03:33.856Z,2.92
2022-08-26T09:04:36.480Z,2.80
2022-08-26T09:05:39.088Z,2.50
2022-08-26T09:06:42.127Z,2.89
2022-08-26T09:07:47.072Z,2.59
2022-08-26T09:08:50.575Z,2.34
2022-08-26T09:09:53.271Z,2.88
2022-08-26T09:10:56.883Z,2.51
2022-08-26T09:12:00.389Z,2.44
2022-08-26T09:13:02.954Z,2.37
2022-08-26T09:14:07.304Z,2.60
2022-08-26T09:15:09.872Z,2.52
2022-08-26T09:16:12.954Z,2.51
2022-08-26T09:17:15.620Z,2.29
2022-08-26T09:18:19.207Z,2.35
2022-08-26T09:19:21.794Z,2.92
2022-08-26T09:20:25.123Z,3.22
2022-08-26T09:21:27.835Z,2.67
2022-08-26T09:22:30.813Z,2.67
2022-08-26T09:23:33.788Z,2.83
2022-08-26T09:24:41.682Z,2.97
2022-08-26T09:25:42.684Z,2.64
2022-08-26T09:26:45.798Z,2.74
2022-08-26T09:27:50.699Z,2.84
2022-08-26T09:28:53.580Z,2.87
2022-08-26T09:29:57.132Z,2.52
2022-08-26T09:31:00.258Z,2.82
2022-08-26T09:32:03.124Z,3.21
2022-08-26T09:33:06.633Z,4.44
2022-08-26T09:34:10.251Z,3.78
2022-08-26T09:35:14.551Z,3.16
2022-08-26T09:36:18.369Z,3.50
2022-08-26T09:37:20.853Z,4.37
2022-08-26T09:38:23.543Z,3.37
2022-08-26T09:39:27.944Z,3.38
2022-08-26T09:40:34.628Z,3.34
2022-08-26T09:41:35.757Z,2.85
2022-08-26T09:42:38.731Z,3.21
2022-08-26T09:43:42.932Z,3.56
2022-08-26T09:44:45.504Z,3.00
2022-08-26T09:45:50.833Z,3.02
2022-08-26T09:46:53.061Z,3.84
2022-08-26T09:47:55.660Z,3.05
2022-08-26T09:48:58.741Z,2.71
2022-08-26T09:50:02.022Z,3.60
2022-08-26T09:51:05.000Z,3.50
2022-08-26T09:52:08.904Z,3.93
2022-08-26T09:53:12.886Z,3.43
2022-08-26T09:54:16.084Z,3.18
2022-08-26T09:55:20.591Z,3.20
2022-08-26T09:56:23.875Z,3.77
2022-08-26T09:57:28.079Z,3.76
2022-08-26T09:58:31.673Z,3.49
2022-08-26T09:59:36.147Z,3.35
2022-08-26T10:00:39.362Z,3.26
2022-08-26T10:01:42.179Z,12.14
2022-08-26T10:02:47.459Z,3.76
2022-08-26T10:03:49.557Z,3.54
2022-08-26T10:04:52.297Z,4.13
2022-08-26T10:05:54.965Z,3.93
2022-08-26T10:06:57.952Z,5.67
2022-08-26T10:08:01.027Z,3.83
2022-08-26T10:09:08.936Z,3.82
2022-08-26T10:10:09.636Z,3.48
2022-08-26T10:11:12.920Z,3.83
2022-08-26T10:12:16.220Z,3.87
2022-08-26T10:13:19.799Z,3.41
2022-08-26T10:14:24.411Z,3.58
2022-08-26T10:15:27.896Z,3.64
2022-08-26T10:16:32.697Z,4.52
2022-08-26T10:17:35.383Z,4.05
2022-08-26T10:18:38.972Z,3.79
2022-08-26T10:19:57.057Z,3.72
2022-08-26T10:20:46.435Z,3.75
2022-08-26T10:21:49.033Z,3.91
2022-08-26T10:22:53.397Z,3.56
2022-08-26T10:23:56.621Z,3.23
2022-08-26T10:24:59.308Z,3.58
2022-08-26T10:26:01.915Z,3.65
2022-08-26T10:27:05.244Z,4.14
2022-08-26T10:28:08.661Z,4.69
2022-08-26T10:29:11.505Z,4.04
2022-08-26T10:30:15.808Z,3.74
2022-08-26T10:31:18.421Z,3.03
2022-08-26T10:32:22.895Z,3.24
2022-08-26T10:33:25.515Z,3.52
2022-08-26T10:34:28.106Z,3.03
2022-08-26T10:35:30.862Z,3.11
2022-08-26T10:36:43.101Z,3.92
2022-08-26T10:37:38.677Z,3.44
2022-08-26T10:38:41.260Z,3.08
2022-08-26T10:39:45.908Z,3.31
2022-08-26T10:40:49.186Z,3.36
2022-08-26T10:41:51.831Z,3.43
2022-08-26T10:42:54.804Z,3.40
2022-08-26T10:43:57.480Z,2.79
2022-08-26T10:45:00.140Z,2.68
2022-08-26T10:46:03.553Z,3.23
2022-08-26T10:47:06.404Z,2.89
2022-08-26T10:48:10.549Z,3.98
2022-08-26T10:49:13.582Z,3.24
2022-08-26T10:50:17.967Z,3.11
2022-08-26T10:51:21.112Z,3.26
2022-08-26T10:52:28.454Z,3.09
2022-08-26T10:53:32.509Z,3.49
2022-08-26T10:54:35.530Z,2.84
2022-08-26T10:55:38.224Z,2.80
2022-08-26T10:56:41.149Z,3.30
2022-08-26T10:57:44.834Z,3.16
2022-08-26T10:58:47.335Z,2.57
2022-08-26T10:59:50.728Z,2.65
2022-08-26T11:00:54.634Z,2.81
2022-08-26T11:01:57.597Z,2.98
2022-08-26T11:03:00.528Z,2.81
2022-08-26T11:04:03.414Z,2.67
2022-08-26T11:05:06.798Z,2.57
2022-08-26T11:06:10.114Z,2.69
2022-08-26T11:07:12.789Z,3.56
2022-08-26T11:08:16.026Z,2.74
2022-08-26T11:09:20.067Z,2.74
2022-08-26T11:10:24.993Z,2.64
2022-08-26T11:11:27.559Z,2.23
2022-08-26T11:12:30.187Z,2.87
2022-08-26T11:13:32.793Z,2.41
2022-08-26T11:14:41.999Z,2.59
2022-08-26T11:15:39.831Z,3.24
2022-08-26T11:16:43.260Z,2.98
2022-08-26T11:17:46.244Z,3.69
2022-08-26T11:18:51.298Z,3.02
2022-08-26T11:20:03.311Z,3.16
2022-08-26T11:20:59.466Z,3.14
2022-08-26T11:22:02.400Z,3.67
2022-08-26T11:23:05.743Z,2.77
2022-08-26T11:24:09.931Z,2.52
2022-08-26T11:25:12.503Z,2.40
2022-08-26T11:26:35.417Z,2.54
2022-08-26T11:27:21.219Z,2.36
2022-08-26T11:28:23.994Z,2.80
2022-08-26T11:29:26.515Z,2.27
2022-08-26T11:30:30.966Z,2.42
2022-08-26T11:31:33.601Z,2.19
2022-08-26T11:32:37.534Z,2.21
2022-08-26T11:33:41.440Z,2.05
2022-08-26T11:34:44.303Z,2.51
2022-08-26T11:35:46.972Z,2.27
2022-08-26T11:36:50.085Z,2.73
2022-08-26T11:37:52.674Z,2.57
2022-08-26T11:38:56.231Z,3.31
2022-08-26T11:39:58.750Z,2.61
2022-08-26T11:41:01.612Z,3.22
2022-08-26T11:42:06.101Z,2.77
2022-08-26T11:43:08.730Z,3.35
2022-08-26T11:44:11.399Z,3.14
2022-08-26T11:45:13.964Z,2.41
2022-08-26T11:46:18.427Z,2.55
2022-08-26T11:47:21.400Z,2.42
2022-08-26T11:48:23.995Z,2.57
2022-08-26T11:49:27.104Z,2.57
2022-08-26T11:50:30.156Z,2.41
2022-08-26T11:51:33.491Z,3.23
2022-08-26T11:52:37.053Z,2.39
2022-08-26T11:53:39.577Z,2.60
2022-08-26T11:54:42.195Z,2.67
2022-08-26T11:55:44.891Z,2.45
2022-08-26T11:56:49.595Z,2.76
2022-08-26T11:57:52.201Z,2.36
2022-08-26T11:58:54.768Z,2.74
2022-08-26T11:59:57.378Z,2.51
2022-08-26T12:01:00.576Z,3.14
2022-08-26T12:02:04.928Z,2.46
2022-08-26T12:03:07.876Z,2.69
2022-08-26T12:04:10.896Z,2.49
2022-08-26T12:05:13.649Z,1.99
2022-08-26T12:06:17.904Z,2.45
2022-08-26T12:07:24.297Z,2.57
2022-08-26T12:08:24.977Z,2.91
2022-08-26T12:09:29.488Z,2.59
2022-08-26T12:10:32.886Z,2.89
2022-08-26T12:11:36.568Z,3.06
2022-08-26T12:12:39.237Z,2.76
2022-08-26T12:13:41.764Z,2.53
2022-08-26T12:14:45.518Z,2.42
2022-08-26T12:15:48.708Z,3.07
2022-08-26T12:16:51.631Z,2.54
2022-08-26T12:17:54.754Z,2.84
2022-08-26T12:18:57.595Z,2.71
2022-08-26T12:20:00.174Z,3.17
2022-08-26T12:21:04.441Z,2.58
2022-08-26T12:22:07.459Z,2.71
2022-08-26T12:23:10.088Z,2.16
2022-08-26T12:24:12.698Z,2.26
2022-08-26T12:25:16.388Z,1.92
2022-08-26T12:26:21.207Z,2.27
2022-08-26T12:27:24.189Z,2.39
2022-08-26T12:28:26.861Z,2.57
2022-08-26T12:29:29.527Z,2.88
2022-08-26T12:30:32.438Z,3.14
2022-08-26T12:31:35.144Z,2.85
2022-08-26T12:32:38.139Z,2.24
2022-08-26T12:33:42.643Z,2.69
2022-08-26T12:34:45.277Z,2.19
2022-08-26T12:35:49.392Z,2.53
2022-08-26T12:36:53.173Z,2.52
2022-08-26T12:37:55.775Z,2.28
2022-08-26T12:38:58.697Z,2.85
2022-08-26T12:40:01.567Z,2.88
2022-08-26T12:41:05.970Z,2.71
2022-08-26T12:42:08.637Z,2.29
2022-08-26T12:43:11.621Z,2.34
2022-08-26T12:44:14.287Z,2.40
2022-08-26T12:45:16.856Z,2.35
2022-08-26T12:46:20.546Z,2.38
2022-08-26T12:47:23.406Z,2.01
2022-08-26T12:48:27.730Z,2.15
2022-08-26T12:49:30.305Z,1.65
2022-08-26T12:50:33.535Z,1.84
2022-08-26T12:51:36.175Z,2.09
2022-08-26T12:52:38.765Z,2.64
2022-08-26T12:53:41.691Z,3.28
2022-08-26T12:54:44.382Z,3.09
2022-08-26T12:55:47.027Z,2.91
2022-08-26T12:56:50.268Z,3.46
2022-08-26T12:57:54.718Z,2.84
2022-08-26T12:58:57.397Z,2.75
2022-08-26T13:00:00.072Z,2.69
2022-08-26T13:01:02.833Z,3.30
2022-08-26T13:02:06.010Z,2.79
2022-08-26T13:03:08.899Z,3.62
2022-08-26T13:04:11.721Z,3.24
2022-08-26T13:05:14.296Z,3.40
2022-08-26T13:06:17.726Z,3.63
2022-08-26T13:07:20.399Z,3.19
2022-08-26T13:08:23.060Z,3.95
2022-08-26T13:09:26.032Z,4.35
2022-08-26T13:10:31.084Z,4.50
2022-08-26T13:11:33.620Z,4.11
2022-08-26T13:12:36.395Z,4.46
2022-08-26T13:13:39.036Z,4.88
2022-08-26T13:14:41.663Z,5.55
2022-08-26T13:15:44.306Z,5.55
2022-08-26T13:16:47.176Z,5.43
2022-08-26T13:17:49.948Z,5.49
2022-08-26T13:18:52.614Z,5.17
2022-08-26T13:19:56.459Z,5.50
2022-08-26T13:21:00.108Z,5.26
2022-08-26T13:22:02.771Z,4.76
2022-08-26T13:23:05.964Z,5.31
2022-08-26T13:24:08.623Z,5.42
2022-08-26T13:25:11.295Z,5.90
2022-08-26T13:26:15.705Z,4.48
2022-08-26T13:27:18.376Z,5.53
2022-08-26T13:28:21.150Z,5.32
2022-08-26T13:29:23.844Z,4.77
2022-08-26T13:30:27.104Z,6.70
2022-08-26T13:31:30.263Z,5.37
2022-08-26T13:32:33.060Z,4.32
2022-08-26T13:33:36.043Z,4.11
2022-08-26T13:34:39.652Z,3.85
2022-08-26T13:35:42.290Z,3.92
2022-08-26T13:36:45.606Z,3.08
2022-08-26T13:37:48.241Z,2.71
2022-08-26T13:38:52.005Z,3.37
2022-08-26T13:39:54.841Z,3.06
2022-08-26T13:40:58.401Z,2.82
2022-08-26T13:42:01.070Z,2.67
2022-08-26T13:43:04.008Z,2.39
2022-08-26T13:44:06.714Z,2.75
2022-08-26T13:45:09.379Z,2.41
2022-08-26T13:46:13.039Z,1.74
2022-08-26T13:47:15.751Z,1.87
2022-08-26T13:48:21.463Z,2.57
2022-08-26T13:49:23.232Z,2.36
2022-08-26T13:50:26.417Z,1.93
2022-08-26T13:51:29.093Z,2.88
2022-08-26T13:52:31.751Z,2.21
2022-08-26T13:53:34.419Z,2.24
2022-08-26T13:54:37.102Z,1.97
2022-08-26T13:55:39.861Z,2.11
2022-08-26T13:56:42.694Z,2.24
2022-08-26T13:57:45.303Z,2.53
2022-08-26T13:58:48.070Z,2.44
2022-08-26T13:59:52.379Z,2.58
2022-08-26T14:00:55.592Z,2.47
2022-08-26T14:01:58.189Z,2.43